createdAt,value
2019-02-19T00:00:12.399Z,10.14
2019-02-19T00:01:12.387Z,10.21
2019-02-19T00:02:12.417Z,10.19
2019-02-19T00:03:12.366Z,10.14
2019-02-19T00:04:12.349Z,10.15
2019-02-19T00:05:12.341Z,10.21
2019-02-19T00:06:12.326Z,10.18
2019-02-19T00:07:12.315Z,10.14
2019-02-19T00:08:12.321Z,10.21
2019-02-19T00:09:12.289Z,10.18
2019-02-19T00:10:12.279Z,10.19
2019-02-19T00:11:12.267Z,10.10
2019-02-19T00:12:12.258Z,10.15
2019-02-19T00:13:12.284Z,10.18
2019-02-19T00:14:12.231Z,10.17
2019-02-19T00:15:12.220Z,10.15
2019-02-19T00:16:12.243Z,10.09
2019-02-19T00:17:12.203Z,10.22
2019-02-19T00:18:12.203Z,10.12
2019-02-19T00:19:12.194Z,10.12
2019-02-19T00:20:12.163Z,10.10
2019-02-19T00:21:12.153Z,10.14
2019-02-19T00:22:12.142Z,10.15
2019-02-19T00:23:12.153Z,10.09
2019-02-19T00:24:12.119Z,10.04
2019-02-19T00:25:12.140Z,10.00
2019-02-19T00:26:12.092Z,10.14
2019-02-19T00:27:12.081Z,9.93
2019-02-19T00:28:12.069Z,9.89
2019-02-19T00:29:12.833Z,9.88
2019-02-19T00:30:12.046Z,9.88
2019-02-19T00:31:12.035Z,9.83
2019-02-19T00:32:12.032Z,9.91
2019-02-19T00:33:12.012Z,9.86
2019-02-19T00:34:12.058Z,9.94
2019-02-19T00:35:11.988Z,9.96
2019-02-19T00:36:11.976Z,9.99
2019-02-19T00:37:11.967Z,9.96
2019-02-19T00:38:11.954Z,9.94
2019-02-19T00:39:11.968Z,9.89
2019-02-19T00:40:11.929Z,9.79
2019-02-19T00:41:11.919Z,9.76
2019-02-19T00:42:11.911Z,9.83
2019-02-19T00:43:11.896Z,9.83
2019-02-19T00:44:11.904Z,9.81
2019-02-19T00:45:16.652Z,9.75
2019-02-19T00:46:11.860Z,9.76
2019-02-19T00:47:11.849Z,9.85
2019-02-19T00:48:11.836Z,9.93
2019-02-19T00:49:11.824Z,9.97
2019-02-19T00:50:11.831Z,9.85
2019-02-19T00:51:11.802Z,9.85
2019-02-19T00:52:11.790Z,9.73
2019-02-19T00:53:11.776Z,9.89
2019-02-19T00:54:11.785Z,9.83
2019-02-19T00:55:11.795Z,9.83
2019-02-19T00:56:11.743Z,9.91
2019-02-19T00:57:11.731Z,9.85
2019-02-19T00:58:11.720Z,9.93
2019-02-19T00:59:11.709Z,9.78
2019-02-19T01:00:11.699Z,9.76
2019-02-19T01:01:11.708Z,9.73
2019-02-19T01:02:11.707Z,9.75
2019-02-19T01:03:11.662Z,9.66
2019-02-19T01:04:11.653Z,9.79
2019-02-19T01:05:11.641Z,9.57
2019-02-19T01:06:11.647Z,9.64
2019-02-19T01:07:11.619Z,9.64
2019-02-19T01:08:11.605Z,9.61
2019-02-19T01:09:11.595Z,9.63
2019-02-19T01:10:11.583Z,9.56
2019-02-19T01:11:11.594Z,9.52
2019-02-19T01:12:11.560Z,9.43
2019-02-19T01:13:11.549Z,9.56
2019-02-19T01:14:11.536Z,9.49
2019-02-19T01:15:11.525Z,9.45
2019-02-19T01:16:11.518Z,9.32
2019-02-19T01:17:11.523Z,9.40
2019-02-19T01:18:11.492Z,9.39
2019-02-19T01:19:11.479Z,9.27
2019-02-19T01:20:11.467Z,9.31
2019-02-19T01:21:11.542Z,9.32
2019-02-19T01:22:11.462Z,9.38
2019-02-19T01:23:11.433Z,9.30
2019-02-19T01:24:11.422Z,9.25
2019-02-19T01:25:11.411Z,9.23
2019-02-19T01:26:11.399Z,9.24
2019-02-19T01:27:11.406Z,9.31
2019-02-19T01:28:11.376Z,9.39
2019-02-19T01:29:11.367Z,9.39
2019-02-19T01:30:11.351Z,9.45
2019-02-19T01:31:11.340Z,9.40
2019-02-19T01:32:11.348Z,9.43
2019-02-19T01:33:11.318Z,9.43
2019-02-19T01:34:11.306Z,9.42
2019-02-19T01:35:11.295Z,9.40
2019-02-19T01:36:11.282Z,9.38
2019-02-19T01:37:11.293Z,9.24
2019-02-19T01:38:11.262Z,9.39
2019-02-19T01:39:11.255Z,9.32
2019-02-19T01:40:11.234Z,9.34
2019-02-19T01:41:11.225Z,9.39
2019-02-19T01:42:11.241Z,9.35
2019-02-19T01:43:11.203Z,9.30
2019-02-19T01:44:11.188Z,9.43
2019-02-19T01:45:11.176Z,9.34
2019-02-19T01:46:11.166Z,9.39
2019-02-19T01:47:11.172Z,9.40
2019-02-19T01:48:11.141Z,9.32
2019-02-19T01:49:11.129Z,9.32
2019-02-19T01:50:11.117Z,9.30
2019-02-19T01:51:11.107Z,9.25
2019-02-19T01:52:11.113Z,9.31
2019-02-19T01:53:11.083Z,9.27
2019-02-19T01:54:11.072Z,9.32
2019-02-19T01:55:11.057Z,9.20
2019-02-19T01:56:11.045Z,9.30
2019-02-19T01:57:11.079Z,9.24
2019-02-19T01:58:11.023Z,9.28
2019-02-19T01:59:11.011Z,9.16
2019-02-19T02:00:10.997Z,9.24
2019-02-19T02:01:10.985Z,9.18
2019-02-19T02:02:10.974Z,9.28
2019-02-19T02:03:10.983Z,9.20
2019-02-19T02:04:10.952Z,9.20
2019-02-19T02:05:10.941Z,9.10
2019-02-19T02:06:10.931Z,9.12
2019-02-19T02:07:10.915Z,9.12
2019-02-19T02:08:10.921Z,9.04
2019-02-19T02:09:10.897Z,9.06
2019-02-19T02:10:10.879Z,8.97
2019-02-19T02:11:10.868Z,9.05
2019-02-19T02:12:10.856Z,9.06
2019-02-19T02:13:10.887Z,8.97
2019-02-19T02:14:10.833Z,9.06
2019-02-19T02:15:10.819Z,8.96
2019-02-19T02:16:10.809Z,8.91
2019-02-19T02:17:10.796Z,8.96
2019-02-19T02:18:10.785Z,8.91
2019-02-19T02:19:10.792Z,8.91
2019-02-19T02:20:10.763Z,9.05
2019-02-19T02:21:10.753Z,8.97
2019-02-19T02:22:10.738Z,9.02
2019-02-19T02:23:10.725Z,9.05
2019-02-19T02:24:10.734Z,9.05
2019-02-19T02:25:10.703Z,9.16
2019-02-19T02:26:10.690Z,9.18
2019-02-19T02:27:10.680Z,9.13
2019-02-19T02:28:10.667Z,9.13
2019-02-19T02:29:10.674Z,9.18
2019-02-19T02:30:10.645Z,9.27
2019-02-19T02:31:10.632Z,9.20
2019-02-19T02:32:10.625Z,9.25
2019-02-19T02:33:10.615Z,9.24
2019-02-19T02:34:10.619Z,9.21
2019-02-19T02:35:11.406Z,9.24
2019-02-19T02:36:10.576Z,9.38
2019-02-19T02:37:10.560Z,9.25
2019-02-19T02:38:10.554Z,9.25
2019-02-19T02:39:10.537Z,9.23
2019-02-19T02:40:10.557Z,9.25
2019-02-19T02:41:10.515Z,9.25
2019-02-19T02:42:17.544Z,9.13
2019-02-19T02:43:10.492Z,9.32
2019-02-19T02:44:10.478Z,9.21
2019-02-19T02:45:10.487Z,9.21
2019-02-19T02:46:10.479Z,9.30
2019-02-19T02:47:10.448Z,9.28
2019-02-19T02:48:10.438Z,9.38
2019-02-19T02:49:10.425Z,9.32
2019-02-19T02:50:10.427Z,9.28
2019-02-19T02:51:10.399Z,9.21
2019-02-19T02:52:10.401Z,9.20
2019-02-19T02:53:10.375Z,9.30
2019-02-19T02:54:10.365Z,9.23
2019-02-19T02:55:10.376Z,9.18
2019-02-19T02:56:10.343Z,9.30
2019-02-19T02:57:10.329Z,9.38
2019-02-19T02:58:10.324Z,9.32
2019-02-19T02:59:10.309Z,9.25
2019-02-19T03:00:10.320Z,9.21
2019-02-19T03:01:10.284Z,9.23
2019-02-19T03:02:10.281Z,9.25
2019-02-19T03:03:10.264Z,9.28
2019-02-19T03:04:10.251Z,9.28
2019-02-19T03:05:10.259Z,9.16
2019-02-19T03:06:10.230Z,9.27
2019-02-19T03:07:10.216Z,9.16
2019-02-19T03:08:10.203Z,9.13
2019-02-19T03:09:10.192Z,9.12
2019-02-19T03:10:10.202Z,9.09
2019-02-19T03:11:10.173Z,9.13
2019-02-19T03:12:10.159Z,9.06
2019-02-19T03:13:10.146Z,9.16
2019-02-19T03:14:10.136Z,9.05
2019-02-19T03:15:10.163Z,9.02
2019-02-19T03:16:10.112Z,9.16
2019-02-19T03:17:10.101Z,9.01
2019-02-19T03:18:10.098Z,9.06
2019-02-19T03:19:10.080Z,8.99
2019-02-19T03:20:10.064Z,8.96
2019-02-19T03:21:10.073Z,9.02
2019-02-19T03:22:10.043Z,8.97
2019-02-19T03:23:10.036Z,8.90
2019-02-19T03:24:10.021Z,8.94
2019-02-19T03:25:10.049Z,8.93
2019-02-19T03:26:10.005Z,8.97
2019-02-19T03:27:09.997Z,8.93
2019-02-19T03:28:09.985Z,8.91
2019-02-19T03:29:09.960Z,8.96
2019-02-19T03:30:09.953Z,8.94
2019-02-19T03:31:09.988Z,8.90
2019-02-19T03:32:09.925Z,8.94
2019-02-19T03:33:09.972Z,8.88
2019-02-19T03:34:09.919Z,9.02
2019-02-19T03:35:09.894Z,8.94
2019-02-19T03:36:09.879Z,8.93
2019-02-19T03:37:09.884Z,8.91
2019-02-19T03:38:09.900Z,8.93
2019-02-19T03:39:09.841Z,8.90
2019-02-19T03:40:09.866Z,8.91
2019-02-19T03:41:09.818Z,8.91
2019-02-19T03:42:09.826Z,8.93
2019-02-19T03:43:09.794Z,8.86
2019-02-19T03:44:09.782Z,8.87
2019-02-19T03:45:09.783Z,8.93
2019-02-19T03:46:12.400Z,8.79
2019-02-19T03:47:09.767Z,8.87
2019-02-19T03:48:09.736Z,8.84
2019-02-19T03:49:09.723Z,8.87
2019-02-19T03:50:09.710Z,8.96
2019-02-19T03:51:09.699Z,8.88
2019-02-19T03:52:09.709Z,8.72
2019-02-19T03:53:09.695Z,8.65
2019-02-19T03:54:09.664Z,8.88
2019-02-19T03:55:09.656Z,8.76
2019-02-19T03:56:09.640Z,8.76
2019-02-19T03:57:09.652Z,8.72
2019-02-19T03:58:09.618Z,8.71
2019-02-19T03:59:09.605Z,8.68
2019-02-19T04:00:09.592Z,8.69
2019-02-19T04:01:09.583Z,8.81
2019-02-19T04:02:09.569Z,8.66
2019-02-19T04:03:09.577Z,8.57
2019-02-19T04:04:09.551Z,8.75
2019-02-19T04:05:09.536Z,8.60
2019-02-19T04:06:09.523Z,8.62
2019-02-19T04:07:09.530Z,8.63
2019-02-19T04:08:09.522Z,8.60
2019-02-19T04:09:09.488Z,8.47
2019-02-19T04:10:09.476Z,8.45
2019-02-19T04:11:09.461Z,8.51
2019-02-19T04:12:09.468Z,8.39
2019-02-19T04:13:09.438Z,8.42
2019-02-19T04:14:09.428Z,8.47
2019-02-19T04:15:09.414Z,8.44
2019-02-19T04:16:09.404Z,8.53
2019-02-19T04:17:09.415Z,8.44
2019-02-19T04:18:09.381Z,8.47
2019-02-19T04:19:09.367Z,8.39
2019-02-19T04:20:09.354Z,8.44
2019-02-19T04:21:09.344Z,8.44
2019-02-19T04:22:09.360Z,8.33
2019-02-19T04:23:09.330Z,8.29
2019-02-19T04:24:09.308Z,8.35
2019-02-19T04:25:09.295Z,8.35
2019-02-19T04:26:09.285Z,8.25
2019-02-19T04:27:09.274Z,8.29
2019-02-19T04:28:09.279Z,8.26
2019-02-19T04:29:09.249Z,8.26
2019-02-19T04:30:09.237Z,8.29
2019-02-19T04:31:09.226Z,8.26
2019-02-19T04:32:09.232Z,8.35
2019-02-19T04:33:09.208Z,8.29
2019-02-19T04:34:09.188Z,8.26
2019-02-19T04:35:09.196Z,8.15
2019-02-19T04:36:09.170Z,8.18
2019-02-19T04:37:09.198Z,8.21
2019-02-19T04:38:09.142Z,8.22
2019-02-19T04:39:09.132Z,8.18
2019-02-19T04:40:09.126Z,8.14
2019-02-19T04:41:09.108Z,8.10
2019-02-19T04:42:09.095Z,8.14
2019-02-19T04:43:09.104Z,8.14
2019-02-19T04:44:09.082Z,8.18
2019-02-19T04:45:09.066Z,8.07
2019-02-19T04:46:09.047Z,7.97
2019-02-19T04:47:09.034Z,8.04
2019-02-19T04:48:09.041Z,8.04
2019-02-19T04:49:09.012Z,8.03
2019-02-19T04:50:08.998Z,8.03
2019-02-19T04:51:08.986Z,8.08
2019-02-19T04:52:09.006Z,8.10
2019-02-19T04:53:08.981Z,8.00
2019-02-19T04:54:08.950Z,7.99
2019-02-19T04:55:08.943Z,7.92
2019-02-19T04:56:08.929Z,7.94
2019-02-19T04:57:08.916Z,7.87
2019-02-19T04:58:08.922Z,7.94
2019-02-19T04:59:08.916Z,8.00
2019-02-19T05:00:08.881Z,7.94
2019-02-19T05:01:08.877Z,7.90
2019-02-19T05:02:08.858Z,7.97
2019-02-19T05:03:08.868Z,8.12
2019-02-19T05:04:08.835Z,8.02
2019-02-19T05:05:08.864Z,8.02
2019-02-19T05:06:08.817Z,8.02
2019-02-19T05:07:08.823Z,8.00
2019-02-19T05:08:08.811Z,8.07
2019-02-19T05:09:08.776Z,8.03
2019-02-19T05:10:08.763Z,7.96
2019-02-19T05:11:08.754Z,8.07
2019-02-19T05:12:08.744Z,7.97
2019-02-19T05:13:08.732Z,8.07
2019-02-19T05:14:08.762Z,8.00
2019-02-19T05:15:08.706Z,8.14
2019-02-19T05:16:08.696Z,8.02
2019-02-19T05:17:08.700Z,8.04
2019-02-19T05:18:08.670Z,8.02
2019-02-19T05:19:08.728Z,8.00
2019-02-19T05:20:08.652Z,8.10
2019-02-19T05:21:08.637Z,8.14
2019-02-19T05:22:08.623Z,8.00
2019-02-19T05:23:08.611Z,8.18
2019-02-19T05:24:08.600Z,8.08
2019-02-19T05:25:08.607Z,8.11
2019-02-19T05:26:08.576Z,8.03
2019-02-19T05:27:08.564Z,8.17
2019-02-19T05:28:08.552Z,8.17
2019-02-19T05:29:08.541Z,8.21
2019-02-19T05:30:08.548Z,8.15
2019-02-19T05:31:08.518Z,8.20
2019-02-19T05:32:08.520Z,8.18
2019-02-19T05:33:08.496Z,8.21
2019-02-19T05:34:08.480Z,8.18
2019-02-19T05:35:08.490Z,8.08
2019-02-19T05:36:09.152Z,8.18
2019-02-19T05:37:08.447Z,8.12
2019-02-19T05:38:08.433Z,8.07
2019-02-19T05:39:08.428Z,8.08
2019-02-19T05:40:08.464Z,8.10
2019-02-19T05:41:08.406Z,8.15
2019-02-19T05:42:08.388Z,8.10
2019-02-19T05:43:08.379Z,8.18
2019-02-19T05:44:08.375Z,8.21
2019-02-19T05:45:08.389Z,8.10
2019-02-19T05:46:08.343Z,8.03
2019-02-19T05:47:08.331Z,8.11
2019-02-19T05:48:08.321Z,8.04
2019-02-19T05:49:08.312Z,8.14
2019-02-19T05:50:08.318Z,8.14
2019-02-19T05:51:08.293Z,8.12
2019-02-19T05:52:08.271Z,8.14
2019-02-19T05:53:08.267Z,8.11
2019-02-19T05:54:08.253Z,8.11
2019-02-19T05:55:08.281Z,8.17
2019-02-19T05:56:08.227Z,8.20
2019-02-19T05:57:08.218Z,8.10
2019-02-19T05:58:08.206Z,8.10
2019-02-19T05:59:08.201Z,8.11
2019-02-19T06:00:08.181Z,8.08
2019-02-19T06:01:08.189Z,8.10
2019-02-19T06:02:08.173Z,8.15
2019-02-19T06:03:08.148Z,8.20
2019-02-19T06:04:08.151Z,8.10
2019-02-19T06:05:08.127Z,8.12
2019-02-19T06:06:08.133Z,8.10
2019-02-19T06:07:08.102Z,8.15
2019-02-19T06:08:08.092Z,8.20
2019-02-19T06:09:08.088Z,8.04
2019-02-19T06:10:08.072Z,8.04
2019-02-19T06:11:08.084Z,8.12
2019-02-19T06:12:08.048Z,8.08
2019-02-19T06:13:08.038Z,8.14
2019-02-19T06:14:08.024Z,8.15
2019-02-19T06:15:08.012Z,8.14
2019-02-19T06:16:08.003Z,8.25
2019-02-19T06:17:08.021Z,8.12
2019-02-19T06:18:07.977Z,8.12
2019-02-19T06:19:07.966Z,8.17
2019-02-19T06:20:07.954Z,8.04
2019-02-19T06:21:07.945Z,8.12
2019-02-19T06:22:07.957Z,8.11
2019-02-19T06:23:07.917Z,8.15
2019-02-19T06:24:07.909Z,8.18
2019-02-19T06:25:07.898Z,8.20
2019-02-19T06:26:07.885Z,8.22
2019-02-19T06:27:07.874Z,8.14
2019-02-19T06:28:07.877Z,8.22
2019-02-19T06:29:07.884Z,8.22
2019-02-19T06:30:07.839Z,8.12
2019-02-19T06:31:07.825Z,8.15
2019-02-19T06:32:07.814Z,8.00
2019-02-19T06:33:07.822Z,8.02
2019-02-19T06:34:07.789Z,8.18
2019-02-19T06:35:07.782Z,8.14
2019-02-19T06:36:07.768Z,8.20
2019-02-19T06:37:07.755Z,8.14
2019-02-19T06:38:07.761Z,8.15
2019-02-19T06:39:07.738Z,8.10
2019-02-19T06:40:07.717Z,8.12
2019-02-19T06:41:07.714Z,8.12
2019-02-19T06:42:07.696Z,8.14
2019-02-19T06:43:07.708Z,8.07
2019-02-19T06:44:07.673Z,8.07
2019-02-19T06:45:07.661Z,8.15
2019-02-19T06:46:07.647Z,8.14
2019-02-19T06:47:07.658Z,8.15
2019-02-19T06:48:07.646Z,8.02
2019-02-19T06:49:07.616Z,8.07
2019-02-19T06:50:07.602Z,8.15
2019-02-19T06:51:07.593Z,8.15
2019-02-19T06:52:07.579Z,8.12
2019-02-19T06:53:07.643Z,8.10
2019-02-19T06:54:07.558Z,8.12
2019-02-19T06:55:07.556Z,7.96
2019-02-19T06:56:07.535Z,8.00
2019-02-19T06:57:07.524Z,8.02
2019-02-19T06:58:07.538Z,8.08
2019-02-19T06:59:07.502Z,8.12
2019-02-19T07:00:07.490Z,8.18
2019-02-19T07:01:07.481Z,8.08
2019-02-19T07:02:07.465Z,8.08
2019-02-19T07:03:07.482Z,8.07
2019-02-19T07:04:07.443Z,8.04
2019-02-19T07:05:07.432Z,8.07
2019-02-19T07:06:07.419Z,8.17
2019-02-19T07:07:07.412Z,8.00
2019-02-19T07:08:07.417Z,8.07
2019-02-19T07:09:07.386Z,8.03
2019-02-19T07:10:07.374Z,8.04
2019-02-19T07:11:07.406Z,8.14
2019-02-19T07:12:07.355Z,8.20
2019-02-19T07:13:07.359Z,8.10
2019-02-19T07:14:07.328Z,8.22
2019-02-19T07:15:07.323Z,8.12
2019-02-19T07:16:07.306Z,8.22
2019-02-19T07:17:15.297Z,8.25
2019-02-19T07:18:08.349Z,8.30
2019-02-19T07:19:07.272Z,8.29
2019-02-19T07:20:07.264Z,8.33
2019-02-19T07:21:07.262Z,8.25
2019-02-19T07:22:07.237Z,8.35
2019-02-19T07:23:07.246Z,8.35
2019-02-19T07:24:07.214Z,8.32
2019-02-19T07:25:07.204Z,8.30
2019-02-19T07:26:07.195Z,8.36
2019-02-19T07:27:07.183Z,8.37
2019-02-19T07:28:07.193Z,8.42
2019-02-19T07:29:07.156Z,8.37
2019-02-19T07:30:07.145Z,8.39
2019-02-19T07:31:07.154Z,8.44
2019-02-19T07:32:07.124Z,8.48
2019-02-19T07:33:07.137Z,8.44
2019-02-19T07:34:07.117Z,8.44
2019-02-19T07:35:07.126Z,8.45
2019-02-19T07:36:07.074Z,8.44
2019-02-19T07:37:07.068Z,8.37
2019-02-19T07:38:07.052Z,8.44
2019-02-19T07:39:07.059Z,8.47
2019-02-19T07:40:07.037Z,8.44
2019-02-19T07:41:07.023Z,8.36
2019-02-19T07:42:07.007Z,8.47
2019-02-19T07:43:06.998Z,8.29
2019-02-19T07:44:07.004Z,8.37
2019-02-19T07:45:06.971Z,8.35
2019-02-19T07:46:06.959Z,8.42
2019-02-19T07:47:06.947Z,8.57
2019-02-19T07:48:06.940Z,8.55
2019-02-19T07:49:06.923Z,8.55
2019-02-19T07:50:06.931Z,8.53
2019-02-19T07:51:06.899Z,8.47
2019-02-19T07:52:06.889Z,8.44
2019-02-19T07:53:06.876Z,8.33
2019-02-19T07:54:06.867Z,8.44
2019-02-19T07:55:06.878Z,8.33
2019-02-19T07:56:06.844Z,8.35
2019-02-19T07:57:06.827Z,8.28
2019-02-19T07:58:06.818Z,8.35
2019-02-19T07:59:06.804Z,8.45
2019-02-19T08:00:06.793Z,8.28
2019-02-19T08:01:06.800Z,8.45
2019-02-19T08:02:06.775Z,8.44
2019-02-19T08:03:06.760Z,8.83
2019-02-19T08:04:06.749Z,8.90
2019-02-19T08:05:06.735Z,8.93
2019-02-19T08:06:06.742Z,8.78
2019-02-19T08:07:06.711Z,8.72
2019-02-19T08:08:06.700Z,8.76
2019-02-19T08:09:06.687Z,8.76
2019-02-19T08:10:06.676Z,8.65
2019-02-19T08:11:06.682Z,8.66
2019-02-19T08:12:06.652Z,8.73
2019-02-19T08:13:06.641Z,8.86
2019-02-19T08:14:06.628Z,8.88
2019-02-19T08:15:06.628Z,8.75
2019-02-19T08:16:06.625Z,8.75
2019-02-19T08:17:06.594Z,8.76
2019-02-19T08:18:06.589Z,8.62
2019-02-19T08:19:06.571Z,8.81
2019-02-19T08:20:13.437Z,8.87
2019-02-19T08:21:07.564Z,8.76
2019-02-19T08:22:06.535Z,8.94
2019-02-19T08:23:06.525Z,8.90
2019-02-19T08:24:06.514Z,8.75
2019-02-19T08:25:06.500Z,8.88
2019-02-19T08:26:06.510Z,8.84
2019-02-19T08:27:06.480Z,8.81
2019-02-19T08:28:06.467Z,8.73
2019-02-19T08:29:13.440Z,8.75
2019-02-19T08:30:07.442Z,8.76
2019-02-19T08:31:06.454Z,8.57
2019-02-19T08:32:06.419Z,8.58
2019-02-19T08:33:06.409Z,8.40
2019-02-19T08:34:06.396Z,8.35
2019-02-19T08:35:06.387Z,8.47
2019-02-19T08:36:06.374Z,8.39
2019-02-19T08:37:06.383Z,8.39
2019-02-19T08:38:06.438Z,8.39
2019-02-19T08:39:06.338Z,8.54
2019-02-19T08:40:06.326Z,8.45
2019-02-19T08:41:06.315Z,8.57
2019-02-19T08:42:06.323Z,8.58
2019-02-19T08:43:06.290Z,8.58
2019-02-19T08:44:06.284Z,8.55
2019-02-19T08:45:06.268Z,8.40
2019-02-19T08:46:06.254Z,8.44
2019-02-19T08:47:06.245Z,8.57
2019-02-19T08:48:06.248Z,8.71
2019-02-19T08:49:06.219Z,8.51
2019-02-19T08:50:06.207Z,9.46
2019-02-19T08:51:06.199Z,10.32
2019-02-19T08:52:06.186Z,11.71
2019-02-19T08:53:06.190Z,11.71
2019-02-19T08:54:06.160Z,12.12
2019-02-19T08:55:06.152Z,12.88
2019-02-19T08:56:06.138Z,13.27
2019-02-19T08:57:06.126Z,14.25
2019-02-19T08:58:06.142Z,13.46
2019-02-19T08:59:06.106Z,13.24
2019-02-19T09:00:06.091Z,13.33
2019-02-19T09:01:06.082Z,14.07
2019-02-19T09:02:06.070Z,14.54
2019-02-19T09:03:06.057Z,15.02
2019-02-19T09:04:06.065Z,15.67
2019-02-19T09:05:06.039Z,16.09
2019-02-19T09:06:06.021Z,15.93
2019-02-19T09:07:06.011Z,16.45
2019-02-19T09:08:06.022Z,16.48
2019-02-19T09:09:05.988Z,16.37
2019-02-19T09:10:05.976Z,16.26
2019-02-19T09:11:05.965Z,16.55
2019-02-19T09:12:05.957Z,16.65
2019-02-19T09:13:05.942Z,16.18
2019-02-19T09:14:05.949Z,15.35
2019-02-19T09:15:05.918Z,15.06
2019-02-19T09:16:05.907Z,14.57
2019-02-19T09:17:05.898Z,15.21
2019-02-19T09:18:05.913Z,15.28
2019-02-19T09:19:05.873Z,14.84
2019-02-19T09:20:05.862Z,14.74
2019-02-19T09:21:05.851Z,15.70
2019-02-19T09:22:05.839Z,16.00
2019-02-19T09:23:05.829Z,15.31
2019-02-19T09:24:09.422Z,15.15
2019-02-19T09:25:05.804Z,15.67
2019-02-19T09:26:05.793Z,15.48
2019-02-19T09:27:05.784Z,14.95
2019-02-19T09:28:05.770Z,14.16
2019-02-19T09:29:05.782Z,15.72
2019-02-19T09:30:05.753Z,16.63
2019-02-19T09:31:05.741Z,17.00
2019-02-19T09:32:05.727Z,16.31
2019-02-19T09:33:05.713Z,17.38
2019-02-19T09:34:05.721Z,17.66
2019-02-19T09:35:05.691Z,17.64
2019-02-19T09:36:05.679Z,17.85
2019-02-19T09:37:05.667Z,18.28
2019-02-19T09:38:05.654Z,18.55
2019-02-19T09:39:05.667Z,18.27
2019-02-19T09:40:05.632Z,18.65
2019-02-19T09:41:05.621Z,18.02
2019-02-19T09:42:05.613Z,17.76
2019-02-19T09:43:05.598Z,17.48
2019-02-19T09:44:05.609Z,18.06
2019-02-19T09:45:05.574Z,18.13
2019-02-19T09:46:05.566Z,18.68
2019-02-19T09:47:05.552Z,18.79
2019-02-19T09:48:05.542Z,18.39
2019-02-19T09:49:05.549Z,17.78
2019-02-19T09:50:05.521Z,18.25
2019-02-19T09:51:05.506Z,18.12
2019-02-19T09:52:05.501Z,16.71
2019-02-19T09:53:05.485Z,15.76
2019-02-19T09:54:05.967Z,15.68
2019-02-19T09:55:05.462Z,17.06
2019-02-19T09:56:05.450Z,17.35
2019-02-19T09:57:05.438Z,17.03
2019-02-19T09:58:05.428Z,16.96
2019-02-19T09:59:05.415Z,16.25
2019-02-19T10:00:05.422Z,15.36
2019-02-19T10:01:05.397Z,15.33
2019-02-19T10:02:05.387Z,16.14
2019-02-19T10:03:05.371Z,16.65
2019-02-19T10:04:05.359Z,16.20
2019-02-19T10:05:05.367Z,15.99
2019-02-19T10:06:05.336Z,16.75
2019-02-19T10:07:05.322Z,17.85
2019-02-19T10:08:05.311Z,17.10
2019-02-19T10:09:05.300Z,16.55
2019-02-19T10:10:05.329Z,15.67
2019-02-19T10:11:05.276Z,15.57
2019-02-19T10:12:05.266Z,16.90
2019-02-19T10:13:05.252Z,16.42
2019-02-19T10:14:05.242Z,15.75
2019-02-19T10:15:05.230Z,15.76
2019-02-19T10:16:05.238Z,15.26
2019-02-19T10:17:05.208Z,15.12
2019-02-19T10:18:10.284Z,15.81
2019-02-19T10:19:06.184Z,15.93
2019-02-19T10:20:05.171Z,15.17
2019-02-19T10:21:05.179Z,14.78
2019-02-19T10:22:05.153Z,14.29
2019-02-19T10:23:05.137Z,14.54
2019-02-19T10:24:05.132Z,15.82
2019-02-19T10:25:05.114Z,16.50
2019-02-19T10:26:05.126Z,16.74
2019-02-19T10:27:05.095Z,17.84
2019-02-19T10:28:05.107Z,18.27
2019-02-19T10:29:05.067Z,17.76
2019-02-19T10:30:05.056Z,17.13
2019-02-19T10:31:05.045Z,16.74
2019-02-19T10:32:06.006Z,16.90
2019-02-19T10:33:05.023Z,17.22
2019-02-19T10:34:05.014Z,16.81
2019-02-19T10:35:04.997Z,16.93
2019-02-19T10:36:05.977Z,17.70
2019-02-19T10:37:04.976Z,17.89
2019-02-19T10:38:05.129Z,16.53
2019-02-19T10:39:04.952Z,16.16
2019-02-19T10:40:04.967Z,17.23
2019-02-19T10:41:04.928Z,17.82
2019-02-19T10:42:04.937Z,18.70
2019-02-19T10:43:04.907Z,18.79
2019-02-19T10:44:04.894Z,17.17
2019-02-19T10:45:04.883Z,16.22
2019-02-19T10:46:04.874Z,16.77
2019-02-19T10:47:04.878Z,18.00
2019-02-19T10:48:04.853Z,18.59
2019-02-19T10:49:04.842Z,17.91
2019-02-19T10:50:04.825Z,17.14
2019-02-19T10:51:04.816Z,16.09
2019-02-19T10:52:04.823Z,15.57
2019-02-19T10:53:04.794Z,16.45
2019-02-19T10:54:04.783Z,16.03
2019-02-19T10:55:04.772Z,15.57
2019-02-19T10:56:04.762Z,15.33
2019-02-19T10:57:04.771Z,15.52
2019-02-19T10:58:04.736Z,15.21
2019-02-19T10:59:04.728Z,16.26
2019-02-19T11:00:04.718Z,16.53
2019-02-19T11:01:04.701Z,16.09
2019-02-19T11:02:04.711Z,16.92
2019-02-19T11:03:04.679Z,17.87
2019-02-19T11:04:04.667Z,17.54
2019-02-19T11:05:04.655Z,17.20
2019-02-19T11:06:04.642Z,17.85
2019-02-19T11:07:04.653Z,16.58
2019-02-19T11:08:04.621Z,17.53
2019-02-19T11:09:04.613Z,18.13
2019-02-19T11:10:04.599Z,16.81
2019-02-19T11:11:04.585Z,16.62
2019-02-19T11:12:04.596Z,17.74
2019-02-19T11:13:04.562Z,17.29
2019-02-19T11:14:04.552Z,16.52
2019-02-19T11:15:04.542Z,17.26
2019-02-19T11:16:04.526Z,16.27
2019-02-19T11:17:04.518Z,16.45
2019-02-19T11:18:04.525Z,17.44
2019-02-19T11:19:04.494Z,17.25
2019-02-19T11:20:04.480Z,17.14
2019-02-19T11:21:04.468Z,16.37
2019-02-19T11:22:04.457Z,16.22
2019-02-19T11:23:04.471Z,17.15
2019-02-19T11:24:04.433Z,17.22
2019-02-19T11:25:04.421Z,16.03
2019-02-19T11:26:04.435Z,15.35
2019-02-19T11:27:04.404Z,14.87
2019-02-19T11:28:04.388Z,14.74
2019-02-19T11:29:04.400Z,14.37
2019-02-19T11:30:04.368Z,14.13
2019-02-19T11:31:04.356Z,13.96
2019-02-19T11:32:04.342Z,13.76
2019-02-19T11:33:04.331Z,14.93
2019-02-19T11:34:04.337Z,14.90
2019-02-19T11:35:04.329Z,14.44
2019-02-19T11:36:04.295Z,14.25
2019-02-19T11:37:04.287Z,14.25
2019-02-19T11:38:04.277Z,14.14
2019-02-19T11:39:04.281Z,13.61
2019-02-19T11:40:05.851Z,14.62
2019-02-19T11:41:04.237Z,16.00
2019-02-19T11:42:04.860Z,16.09
2019-02-19T11:43:04.218Z,15.93
2019-02-19T11:44:04.224Z,15.86
2019-02-19T11:45:04.244Z,14.98
2019-02-19T11:46:04.182Z,14.71
2019-02-19T11:49:54.718Z,15.97
2019-02-19T11:50:27.790Z,15.20
2019-02-19T11:51:27.780Z,16.18
2019-02-19T11:52:27.775Z,16.12
2019-02-19T12:05:41.051Z,14.83
2019-02-19T12:06:16.299Z,14.39
2019-02-19T12:07:16.282Z,14.25
2019-02-19T12:08:23.428Z,14.80
2019-02-19T12:09:16.263Z,14.21
2019-02-19T12:10:16.273Z,14.12
2019-02-19T12:11:16.238Z,13.65
2019-02-19T12:14:35.968Z,13.06
2019-02-19T12:15:35.975Z,13.03
2019-02-19T12:16:35.944Z,12.85
2019-02-19T12:17:35.929Z,12.56
2019-02-19T12:18:35.920Z,12.52
2019-02-19T12:19:35.930Z,12.39
2019-02-19T12:20:35.895Z,12.23
2019-02-19T12:21:35.882Z,12.20
2019-02-19T12:22:35.871Z,12.46
2019-02-19T12:23:35.859Z,12.52
2019-02-19T12:24:35.872Z,12.41
2019-02-19T12:46:51.436Z,12.26
2019-02-19T12:47:31.405Z,12.41
2019-02-19T12:48:24.471Z,12.23
2019-02-19T12:49:24.462Z,12.51
2019-02-19T12:50:24.468Z,12.78
2019-02-19T12:51:26.500Z,12.74
2019-02-19T12:52:24.423Z,12.77
2019-02-19T12:53:31.444Z,12.87
2019-02-19T12:54:24.403Z,13.03
2019-02-19T12:55:24.412Z,13.09
2019-02-19T12:56:24.379Z,13.03
2019-02-19T12:57:24.367Z,12.88
2019-02-19T12:58:24.356Z,12.97
2019-02-19T12:59:24.344Z,13.14
2019-02-19T13:00:24.353Z,13.22
2019-02-19T13:01:24.322Z,12.96
2019-02-19T13:02:24.310Z,13.14
2019-02-19T13:03:24.302Z,14.86
2019-02-19T13:04:24.299Z,14.34
2019-02-19T13:05:24.294Z,13.83
2019-02-19T13:06:24.263Z,13.46
2019-02-19T13:07:24.254Z,13.24
2019-02-19T13:08:24.241Z,13.09
2019-02-19T13:09:24.226Z,12.88
2019-02-19T13:10:24.239Z,12.82
2019-02-19T13:11:24.204Z,12.74
2019-02-19T13:12:24.192Z,12.79
2019-02-19T13:13:24.189Z,13.12
2019-02-19T13:14:24.169Z,13.14
2019-02-19T13:15:24.181Z,13.03
2019-02-19T13:16:24.145Z,12.97
2019-02-19T13:17:24.132Z,13.11
2019-02-19T13:18:24.128Z,13.02
2019-02-19T13:19:24.111Z,13.03
2019-02-19T13:20:24.124Z,13.44
2019-02-19T13:21:24.089Z,14.61
2019-02-19T13:22:24.077Z,14.38
2019-02-19T13:23:24.063Z,14.19
2019-02-19T13:24:24.052Z,14.13
2019-02-19T13:25:24.066Z,14.44
2019-02-19T13:26:24.027Z,15.51
2019-02-19T13:27:24.018Z,16.12
2019-02-19T13:28:24.009Z,16.38
2019-02-19T13:29:23.995Z,16.88
2019-02-19T13:30:24.005Z,16.22
2019-02-19T13:31:23.972Z,16.40
2019-02-19T13:32:23.960Z,16.18
2019-02-19T13:33:23.952Z,15.68
2019-02-19T13:34:23.935Z,15.23
2019-02-19T13:35:23.949Z,15.01
2019-02-19T13:36:23.915Z,14.54
2019-02-19T13:37:23.902Z,14.19
2019-02-19T13:38:23.891Z,14.16
2019-02-19T13:39:23.881Z,13.95
2019-02-19T13:40:23.893Z,13.96
2019-02-19T13:41:23.855Z,13.69
2019-02-19T13:42:23.845Z,14.12
2019-02-19T13:43:23.831Z,14.12
2019-02-19T13:44:23.821Z,14.31
2019-02-19T13:45:23.826Z,13.73